createdAt,value
2019-02-25T00:00:07.308Z,100264.86
2019-02-25T00:02:39.495Z,100259.33
2019-02-25T00:05:11.347Z,100249.96
2019-02-25T00:07:42.873Z,100245.19
2019-02-25T00:10:14.631Z,100247.41
2019-02-25T00:12:46.497Z,100257.78
2019-02-25T00:15:18.059Z,100255.77
2019-02-25T00:17:49.764Z,100265.59
2019-02-25T00:20:21.473Z,100255.67
2019-02-25T00:22:53.055Z,100252.28
2019-02-25T00:25:24.864Z,100265.95
2019-02-25T00:27:56.684Z,100267.98
2019-02-25T00:30:28.404Z,100270.63
2019-02-25T00:33:00.013Z,100284.00
2019-02-25T00:35:31.801Z,100276.39
2019-02-25T00:38:03.470Z,100264.23
2019-02-25T00:40:35.346Z,100256.55
2019-02-25T00:43:06.910Z,100257.87
2019-02-25T00:45:38.582Z,100260.91
2019-02-25T00:48:10.664Z,100267.89
2019-02-25T00:50:42.649Z,100266.17
2019-02-25T00:53:14.489Z,100260.30
2019-02-25T00:55:46.330Z,100246.34
2019-02-25T00:58:17.918Z,100244.43
2019-02-25T01:00:49.494Z,100237.89
2019-02-25T01:03:21.119Z,100238.95
2019-02-25T01:05:52.712Z,100253.20
2019-02-25T01:08:24.358Z,100253.57
2019-02-25T01:10:58.865Z,100254.25
2019-02-25T01:13:30.610Z,100266.75
2019-02-25T01:16:02.322Z,100253.20
2019-02-25T01:18:34.242Z,100257.11
2019-02-25T01:21:06.170Z,100253.70
2019-02-25T01:23:37.976Z,100261.81
2019-02-25T01:26:09.817Z,100258.09
2019-02-25T01:28:41.491Z,100255.20
2019-02-25T01:31:13.394Z,100261.77
2019-02-25T01:33:45.087Z,100244.70
2019-02-25T01:36:17.611Z,100240.84
2019-02-25T01:38:49.260Z,100240.37
2019-02-25T01:41:21.782Z,100239.84
2019-02-25T01:43:53.287Z,100235.84
2019-02-25T01:46:25.376Z,100234.17
2019-02-25T01:48:57.100Z,100227.68
2019-02-25T01:51:28.768Z,100239.33
2019-02-25T01:54:00.529Z,100234.17
2019-02-25T01:56:32.324Z,100249.69
2019-02-25T01:59:03.933Z,100239.94
2019-02-25T02:01:35.515Z,100239.98
2019-02-25T02:04:07.076Z,100253.77
2019-02-25T02:06:38.728Z,100242.34
2019-02-25T02:09:11.265Z,100242.45
2019-02-25T02:11:42.936Z,100240.00
2019-02-25T02:14:14.731Z,100249.09
2019-02-25T02:16:46.336Z,100231.13
2019-02-25T02:19:17.896Z,100256.23
2019-02-25T02:21:49.480Z,100245.54
2019-02-25T02:24:21.061Z,100248.92
2019-02-25T02:26:52.640Z,100252.74
2019-02-25T02:29:24.347Z,100252.86
2019-02-25T02:31:55.998Z,100256.44
2019-02-25T02:34:27.682Z,100263.34
2019-02-25T02:36:59.398Z,100262.52
2019-02-25T02:39:30.989Z,100260.03
2019-02-25T02:42:17.638Z,100265.61
2019-02-25T02:45:09.502Z,100273.78
2019-02-25T02:48:28.715Z,100273.33
2019-02-25T02:51:00.288Z,100272.88
2019-02-25T02:53:32.035Z,100273.91
2019-02-25T02:56:03.740Z,100267.09
2019-02-25T02:58:35.364Z,100272.70
2019-02-25T03:01:07.031Z,100271.06
2019-02-25T03:03:38.812Z,100277.11
2019-02-25T03:06:10.440Z,100279.36
2019-02-25T03:08:42.020Z,100279.11
2019-02-25T03:11:13.723Z,100282.58
2019-02-25T03:13:45.570Z,100279.66
2019-02-25T03:16:17.494Z,100274.98
2019-02-25T03:18:49.200Z,100278.00
2019-02-25T03:21:20.996Z,100278.88
2019-02-25T03:23:52.591Z,100283.59
2019-02-25T03:26:24.184Z,100273.75
2019-02-25T03:28:55.806Z,100275.14
2019-02-25T03:31:27.474Z,100276.04
2019-02-25T03:33:59.124Z,100275.16
2019-02-25T03:36:30.890Z,100276.95
2019-02-25T03:39:03.351Z,100270.95
2019-02-25T03:41:35.442Z,100255.52
2019-02-25T03:44:08.275Z,100251.20
2019-02-25T03:46:39.995Z,100247.77
2019-02-25T03:49:12.506Z,100249.48
2019-02-25T03:51:44.184Z,100236.58
2019-02-25T03:54:16.439Z,100230.39
2019-02-25T03:56:48.127Z,100221.91
2019-02-25T03:59:19.715Z,100226.30
2019-02-25T04:01:51.376Z,100221.70
2019-02-25T04:04:22.903Z,100215.52
2019-02-25T04:06:54.578Z,100215.35
2019-02-25T04:09:26.147Z,100213.91
2019-02-25T04:11:57.795Z,100222.41
2019-02-25T04:14:29.251Z,100235.36
2019-02-25T04:17:00.880Z,100230.09
2019-02-25T04:19:32.542Z,100232.53
2019-02-25T04:22:04.245Z,100232.67
2019-02-25T04:24:36.137Z,100240.31
2019-02-25T04:27:07.568Z,100234.78
2019-02-25T04:29:39.266Z,100253.70
2019-02-25T04:32:10.935Z,100249.34
2019-02-25T04:34:42.618Z,100250.05
2019-02-25T04:37:14.257Z,100257.45
2019-02-25T04:39:45.912Z,100248.07
2019-02-25T04:42:17.717Z,100239.98
2019-02-25T04:44:51.254Z,100242.98
2019-02-25T04:47:23.006Z,100243.43
2019-02-25T04:49:54.447Z,100249.41
2019-02-25T04:52:26.081Z,100250.25
2019-02-25T04:54:57.778Z,100257.07
2019-02-25T04:57:29.370Z,100257.51
2019-02-25T05:00:01.123Z,100266.48
2019-02-25T05:02:32.970Z,100266.04
2019-02-25T05:05:04.693Z,100258.34
2019-02-25T05:07:36.293Z,100260.05
2019-02-25T05:10:09.330Z,100257.07
2019-02-25T05:12:42.755Z,100251.09
2019-02-25T05:15:16.826Z,100248.55
2019-02-25T05:18:07.385Z,100254.94
2019-02-25T05:20:39.039Z,100254.95
2019-02-25T05:23:10.675Z,100243.85
2019-02-25T05:25:42.528Z,100248.11
2019-02-25T05:28:14.197Z,100238.70
2019-02-25T05:30:45.971Z,100237.75
2019-02-25T05:33:17.605Z,100240.66
2019-02-25T05:35:49.557Z,100240.05
2019-02-25T05:38:21.444Z,100232.22
2019-02-25T05:40:53.059Z,100232.17
2019-02-25T05:43:24.788Z,100246.71
2019-02-25T05:45:56.422Z,100242.49
2019-02-25T05:48:28.409Z,100248.59
2019-02-25T05:51:00.270Z,100249.52
2019-02-25T05:53:32.056Z,100256.00
2019-02-25T05:56:03.817Z,100249.59
2019-02-25T05:58:35.368Z,100251.33
2019-02-25T06:01:11.216Z,100241.52
2019-02-25T06:03:42.994Z,100244.51
2019-02-25T06:06:14.648Z,100241.97
2019-02-25T06:08:46.577Z,100241.54
2019-02-25T06:11:18.235Z,100247.97
2019-02-25T06:13:49.980Z,100248.84
2019-02-25T06:16:21.857Z,100245.39
2019-02-25T06:18:53.406Z,100244.09
2019-02-25T06:21:28.556Z,100252.59
2019-02-25T06:24:00.183Z,100251.30
2019-02-25T06:26:31.884Z,100242.73
2019-02-25T06:29:03.702Z,100249.88
2019-02-25T06:31:35.246Z,100248.24
2019-02-25T06:34:06.907Z,100246.73
2019-02-25T06:36:38.511Z,100250.58
2019-02-25T06:39:10.449Z,100254.76
2019-02-25T06:41:42.106Z,100245.23
2019-02-25T06:44:13.687Z,100247.83
2019-02-25T06:46:45.507Z,100246.97
2019-02-25T06:49:17.272Z,100249.25
2019-02-25T06:51:48.974Z,100253.78
2019-02-25T06:54:20.792Z,100255.78
2019-02-25T06:56:54.466Z,100259.34
2019-02-25T06:59:26.245Z,100250.06
2019-02-25T07:01:57.920Z,100246.86
2019-02-25T07:04:48.213Z,100252.34
2019-02-25T07:07:24.718Z,100246.33
2019-02-25T07:10:32.882Z,100257.94
2019-02-25T07:13:15.791Z,100256.23
2019-02-25T07:16:09.051Z,100261.28
2019-02-25T07:19:03.247Z,100257.02
2019-02-25T07:21:53.026Z,100261.45
2019-02-25T07:24:52.433Z,100257.66
2019-02-25T07:27:48.092Z,100248.59
2019-02-25T07:30:54.161Z,100249.67
2019-02-25T07:33:41.876Z,100254.95
2019-02-25T07:36:33.596Z,100245.80
2019-02-25T07:39:34.516Z,100248.77
2019-02-25T07:42:22.884Z,100247.58
2019-02-25T07:45:34.026Z,100242.20
2019-02-25T07:48:24.724Z,100245.14
2019-02-25T07:51:15.935Z,100256.86
2019-02-25T07:54:12.702Z,100256.33
2019-02-25T07:57:13.760Z,100255.94
2019-02-25T08:00:21.448Z,100256.30
2019-02-25T08:03:18.774Z,100259.44
2019-02-25T08:06:18.037Z,100259.77
2019-02-25T08:09:17.123Z,100259.94
2019-02-25T08:12:08.774Z,100254.89
2019-02-25T08:14:51.961Z,100260.57
2019-02-25T08:17:46.314Z,100261.72
2019-02-25T08:20:37.518Z,100263.27
2019-02-25T08:23:27.604Z,100257.15
2019-02-25T08:26:36.326Z,100246.23
2019-02-25T08:29:26.482Z,100238.77
2019-02-25T08:32:17.790Z,100224.84
2019-02-25T08:35:10.226Z,100229.62
2019-02-25T08:38:12.502Z,100233.45
2019-02-25T08:41:45.011Z,100229.98
2019-02-25T08:44:27.555Z,100218.52
2019-02-25T08:47:18.526Z,100225.44
2019-02-25T08:49:58.741Z,100219.66
2019-02-25T08:52:33.460Z,100216.36
2019-02-25T08:55:09.397Z,100221.52
2019-02-25T08:57:45.125Z,100211.60
2019-02-25T09:00:18.518Z,100210.08
2019-02-25T09:02:53.774Z,100201.55
2019-02-25T09:05:28.920Z,100200.42
2019-02-25T09:08:03.110Z,100195.30
2019-02-25T09:10:36.706Z,100192.44
2019-02-25T09:13:09.693Z,100189.37
2019-02-25T09:15:44.684Z,100181.58
2019-02-25T09:18:18.164Z,100178.78
2019-02-25T09:20:52.231Z,100179.36
2019-02-25T09:23:27.299Z,100182.75
2019-02-25T09:26:01.342Z,100180.19
2019-02-25T09:28:36.635Z,100179.01
2019-02-25T09:31:12.547Z,100176.39
2019-02-25T09:33:49.939Z,100175.55
2019-02-25T09:36:22.907Z,100172.14
2019-02-25T09:39:00.561Z,100170.81
2019-02-25T09:41:32.231Z,100161.22
2019-02-25T09:44:04.304Z,100160.59
2019-02-25T09:46:36.361Z,100164.45
2019-02-25T09:49:09.281Z,100162.36
2019-02-25T09:51:41.713Z,100170.86
2019-02-25T09:54:13.622Z,100166.37
2019-02-25T09:56:45.278Z,100171.80
2019-02-25T09:59:17.103Z,100170.95
2019-02-25T10:01:48.978Z,100166.52
2019-02-25T10:04:20.608Z,100159.75
2019-02-25T10:06:52.342Z,100162.86
2019-02-25T10:09:29.877Z,100153.68
2019-02-25T10:11:57.627Z,100156.16
2019-02-25T10:14:29.486Z,100148.25
2019-02-25T10:17:01.715Z,100143.32
2019-02-25T10:19:34.811Z,100132.40
2019-02-25T10:22:06.617Z,100133.55
2019-02-25T10:24:39.862Z,100138.41
2019-02-25T10:27:11.342Z,100149.34
2019-02-25T10:29:43.159Z,100140.31
2019-02-25T10:32:15.274Z,100133.77
2019-02-25T10:34:47.347Z,100133.90
2019-02-25T10:37:19.325Z,100134.06
2019-02-25T10:39:51.547Z,100133.52
2019-02-25T10:42:23.491Z,100113.95
2019-02-25T10:44:55.439Z,100121.74
2019-02-25T10:47:27.133Z,100105.61
2019-02-25T10:50:00.716Z,100109.88
2019-02-25T10:52:32.227Z,100104.72
2019-02-25T10:55:03.937Z,100105.86
2019-02-25T10:57:36.735Z,100100.95
2019-02-25T11:00:11.670Z,100090.74
2019-02-25T11:02:46.273Z,100083.50
2019-02-25T11:05:19.091Z,100082.36
2019-02-25T11:07:51.347Z,100066.28
2019-02-25T11:10:31.845Z,100066.72
2019-02-25T11:13:04.327Z,100060.20
2019-02-25T11:15:39.651Z,100048.52
2019-02-25T11:18:11.828Z,100040.92
2019-02-25T11:20:43.535Z,100044.85
2019-02-25T11:23:18.909Z,100051.89
2019-02-25T11:25:51.507Z,100054.55
2019-02-25T11:28:25.947Z,100044.34
2019-02-25T11:30:57.576Z,100039.69
2019-02-25T11:33:30.308Z,100039.53
2019-02-25T11:36:03.191Z,100029.64
2019-02-25T11:38:37.361Z,100024.70
2019-02-25T11:41:11.130Z,100024.17
2019-02-25T11:43:44.058Z,100024.31
2019-02-25T11:46:16.003Z,100010.27
2019-02-25T11:48:47.895Z,100008.42
2019-02-25T11:51:19.603Z,100005.14
2019-02-25T11:53:52.071Z,100004.66
2019-02-25T11:56:23.875Z,99990.25
2019-02-25T11:58:56.075Z,99980.23
2019-02-25T12:01:27.560Z,99980.64
2019-02-25T12:03:59.484Z,99965.65
2019-02-25T12:06:31.475Z,99962.30
2019-02-25T12:09:03.890Z,99953.69
2019-02-25T12:11:35.550Z,99954.81
2019-02-25T12:14:07.307Z,99951.35
2019-02-25T12:16:39.268Z,99943.58
2019-02-25T12:19:17.790Z,99924.35
2019-02-25T12:21:44.760Z,99924.03
2019-02-25T12:24:16.755Z,99915.81
2019-02-25T12:26:48.752Z,99907.40
2019-02-25T12:29:20.571Z,99898.07
2019-02-25T12:31:52.426Z,99894.85
2019-02-25T12:34:24.226Z,99885.38
2019-02-25T12:36:55.967Z,99882.48
2019-02-25T12:39:27.696Z,99860.02
2019-02-25T12:41:59.685Z,99867.36
2019-02-25T12:44:31.367Z,99849.33
2019-02-25T12:47:03.190Z,99848.75
2019-02-25T12:49:36.705Z,99838.68
2019-02-25T12:52:08.688Z,99833.13
2019-02-25T12:54:40.273Z,99823.27
2019-02-25T12:57:13.004Z,99821.81
2019-02-25T12:59:44.881Z,99809.89
2019-02-25T13:02:17.523Z,99817.28
2019-02-25T13:04:50.553Z,99809.94
2019-02-25T13:07:22.638Z,99804.95
2019-02-25T13:09:55.202Z,99792.34
2019-02-25T13:12:29.800Z,99782.24
2019-02-25T13:15:02.199Z,99779.47
2019-02-25T13:17:34.342Z,99782.61
2019-02-25T13:20:06.836Z,99775.77
2019-02-25T13:22:39.169Z,99763.30
2019-02-25T13:25:13.207Z,99751.63
2019-02-25T13:27:45.185Z,99750.95
2019-02-25T13:30:18.071Z,99748.91
2019-02-25T13:32:49.840Z,99742.00
2019-02-25T13:35:22.078Z,99742.75
2019-02-25T13:37:53.877Z,99704.18
2019-02-25T13:40:25.670Z,99723.07
2019-02-25T13:42:57.820Z,99724.59
2019-02-25T13:45:29.915Z,99728.37
2019-02-25T13:48:01.753Z,99722.96
2019-02-25T13:50:34.044Z,99729.84
2019-02-25T13:53:06.073Z,99722.63
2019-02-25T13:55:38.458Z,99723.73
2019-02-25T13:58:10.184Z,99725.28
2019-02-25T14:00:42.730Z,99736.91
2019-02-25T14:03:19.515Z,99724.76
2019-02-25T14:05:51.630Z,99724.52
2019-02-25T14:08:23.638Z,99732.54
2019-02-25T14:10:56.192Z,99740.08
2019-02-25T14:13:28.844Z,99727.47
2019-02-25T14:16:01.309Z,99718.31
2019-02-25T14:18:33.604Z,99708.02
2019-02-25T14:21:05.642Z,99697.80
2019-02-25T14:23:38.269Z,99696.11
2019-02-25T14:26:11.875Z,99701.86
2019-02-25T14:28:43.829Z,99675.80
2019-02-25T14:31:15.687Z,99695.04
2019-02-25T14:33:52.060Z,99697.77
2019-02-25T14:36:22.505Z,99689.36
2019-02-25T14:38:56.246Z,99688.41
2019-02-25T14:41:27.985Z,99687.52
2019-02-25T14:44:00.461Z,99681.61
2019-02-25T14:46:32.824Z,99674.70
2019-02-25T14:49:08.092Z,99689.24
2019-02-25T14:51:40.196Z,99691.16
2019-02-25T14:54:11.939Z,99680.13
2019-02-25T14:56:45.043Z,99677.47
2019-02-25T14:59:20.321Z,99671.20
2019-02-25T15:01:52.114Z,99654.20
2019-02-25T15:04:24.335Z,99634.17
2019-02-25T15:06:56.842Z,99643.63
2019-02-25T15:09:30.788Z,99604.95
2019-02-25T15:12:04.150Z,99622.66
2019-02-25T15:14:36.598Z,99629.61
2019-02-25T15:17:10.644Z,99626.48
2019-02-25T15:19:43.761Z,99632.14
2019-02-25T15:22:16.211Z,99617.20
2019-02-25T15:24:50.255Z,99613.64
2019-02-25T15:27:22.665Z,99605.92
2019-02-25T15:29:55.331Z,99606.86
2019-02-25T15:32:29.529Z,99620.33
2019-02-25T15:35:01.678Z,99620.61
2019-02-25T15:37:33.547Z,99626.02
2019-02-25T15:40:09.850Z,99621.08
2019-02-25T15:42:42.134Z,99614.48
2019-02-25T15:45:17.964Z,99608.45
2019-02-25T15:47:50.828Z,99618.00
2019-02-25T15:50:24.935Z,99614.16
2019-02-25T15:53:00.737Z,99607.80
2019-02-25T15:55:32.030Z,99603.69
2019-02-25T15:58:04.196Z,99601.40
2019-02-25T16:00:39.641Z,99578.09
2019-02-25T16:03:13.773Z,99559.50
2019-02-25T16:05:46.559Z,99543.48
2019-02-25T16:08:20.942Z,99561.94
2019-02-25T16:10:53.369Z,99581.33
2019-02-25T16:13:26.094Z,99624.78
2019-02-25T16:15:58.097Z,99650.99
2019-02-25T16:18:30.076Z,99654.82
2019-02-25T16:21:02.653Z,99624.47
2019-02-25T16:23:37.055Z,99569.28
2019-02-25T16:26:10.706Z,99580.35
2019-02-25T16:28:43.854Z,99638.98
2019-02-25T16:31:16.610Z,99666.67
2019-02-25T16:33:49.713Z,99635.02
2019-02-25T16:36:24.438Z,99607.92
2019-02-25T16:38:58.604Z,99632.93
2019-02-25T16:41:32.351Z,99658.12
2019-02-25T16:44:24.267Z,99657.48
2019-02-25T16:46:56.602Z,99661.93
2019-02-25T16:49:29.493Z,99644.80
2019-02-25T16:52:03.537Z,99656.40
2019-02-25T16:54:35.372Z,99669.56
2019-02-25T16:57:07.349Z,99654.98
2019-02-25T16:59:39.539Z,99643.99
2019-02-25T17:02:14.180Z,99651.47
2019-02-25T17:04:45.566Z,99628.95
2019-02-25T17:07:18.307Z,99639.84
2019-02-25T17:09:51.202Z,99652.48
2019-02-25T17:12:25.266Z,99627.81
2019-02-25T17:14:57.457Z,99624.23
2019-02-25T17:17:29.310Z,99641.66
2019-02-25T17:20:02.842Z,99612.09
2019-02-25T17:22:34.852Z,99629.13
2019-02-25T17:25:09.779Z,99624.45
2019-02-25T17:27:42.676Z,99622.96
2019-02-25T17:30:20.301Z,99645.42
2019-02-25T17:32:53.050Z,99631.78
2019-02-25T17:35:27.913Z,99643.17
2019-02-25T17:38:03.618Z,99664.30
2019-02-25T17:40:34.912Z,99672.73
2019-02-25T17:43:08.874Z,99682.42
2019-02-25T17:45:41.120Z,99702.42
2019-02-25T17:48:15.999Z,99707.44
2019-02-25T17:50:47.928Z,99711.45
2019-02-25T17:53:22.372Z,99714.73
2019-02-25T17:55:57.223Z,99724.05
2019-02-25T17:58:30.949Z,99747.05
2019-02-25T18:01:05.736Z,99747.66
2019-02-25T18:03:39.968Z,99749.45
2019-02-25T18:06:14.513Z,99752.94
2019-02-25T18:08:48.816Z,99766.10
2019-02-25T18:11:24.182Z,99778.63
2019-02-25T18:13:57.938Z,99786.09
2019-02-25T18:16:33.260Z,99791.95
2019-02-25T18:19:09.211Z,99782.97
2019-02-25T18:21:43.775Z,99800.02
2019-02-25T18:24:17.123Z,99801.03
2019-02-25T18:26:50.793Z,99800.17
2019-02-25T18:29:25.230Z,99805.08
2019-02-25T18:31:58.749Z,99802.89
2019-02-25T18:34:34.266Z,99815.23
2019-02-25T18:37:09.226Z,99806.52
2019-02-25T18:39:45.719Z,99803.72
2019-02-25T18:42:20.264Z,99815.80
2019-02-25T18:44:53.913Z,99827.32
2019-02-25T18:47:27.960Z,99816.66
2019-02-25T18:50:01.324Z,99818.20
2019-02-25T18:52:37.991Z,99809.52
2019-02-25T18:55:12.519Z,99822.09
2019-02-25T18:57:46.092Z,99826.55
2019-02-25T19:00:42.566Z,99832.30
2019-02-25T19:03:13.819Z,99833.37
2019-02-25T19:05:46.359Z,99844.45
2019-02-25T19:08:22.872Z,99844.81
2019-02-25T19:10:57.278Z,99844.58
2019-02-25T19:13:32.096Z,99858.25
2019-02-25T19:16:05.981Z,99853.78
2019-02-25T19:18:41.312Z,99850.74
2019-02-25T19:21:14.799Z,99855.52
2019-02-25T19:23:48.638Z,99850.05
2019-02-25T19:26:23.264Z,99849.02
2019-02-25T19:28:58.618Z,99839.46
2019-02-25T19:31:32.275Z,99845.02
2019-02-25T19:34:06.481Z,99836.00
2019-02-25T19:36:41.215Z,99835.19
2019-02-25T19:39:17.344Z,99834.41
2019-02-25T19:41:51.415Z,99834.56
2019-02-25T19:44:27.512Z,99829.27
2019-02-25T19:47:01.136Z,99844.09
2019-02-25T19:49:36.717Z,99826.34
2019-02-25T19:52:12.077Z,99831.33
2019-02-25T19:54:48.146Z,99836.21
2019-02-25T19:57:23.558Z,99836.86
2019-02-25T19:59:57.900Z,99838.79
2019-02-25T20:02:32.340Z,99847.21
2019-02-25T20:05:09.599Z,99848.36
2019-02-25T20:07:41.727Z,99848.72
2019-02-25T20:10:15.696Z,99852.94
2019-02-25T20:12:50.124Z,99857.59
2019-02-25T20:15:25.084Z,99845.66
2019-02-25T20:17:55.799Z,99853.09
2019-02-25T20:20:34.627Z,99851.47
2019-02-25T20:23:08.605Z,99853.12
2019-02-25T20:25:44.732Z,99858.28
2019-02-25T20:28:18.032Z,99859.63
2019-02-25T20:30:51.644Z,99859.20
2019-02-25T20:33:30.519Z,99849.97
2019-02-25T20:36:01.314Z,99857.95
2019-02-25T20:38:34.803Z,99861.59
2019-02-25T20:41:07.599Z,99858.69
2019-02-25T20:43:42.139Z,99851.44
2019-02-25T20:46:13.943Z,99853.66
2019-02-25T20:48:48.402Z,99861.42
2019-02-25T20:51:19.426Z,99863.87
2019-02-25T20:53:52.943Z,99877.03
2019-02-25T20:56:26.523Z,99868.67
2019-02-25T20:58:59.026Z,99874.30
2019-02-25T21:01:35.246Z,99877.48
2019-02-25T21:04:05.956Z,99880.61
2019-02-25T21:06:39.768Z,99883.20
2019-02-25T21:09:11.771Z,99881.69
2019-02-25T21:11:44.043Z,99885.69
2019-02-25T21:14:16.042Z,99884.20
2019-02-25T21:16:47.679Z,99880.78
2019-02-25T21:19:20.087Z,99885.30
2019-02-25T21:21:55.065Z,99875.55
2019-02-25T21:24:26.933Z,99875.02
2019-02-25T21:27:01.095Z,99877.63
2019-02-25T21:29:34.815Z,99877.34
2019-02-25T21:32:10.556Z,99866.59
2019-02-25T21:34:46.202Z,99874.98
2019-02-25T21:37:16.064Z,99876.24
2019-02-25T21:39:48.451Z,99874.19
2019-02-25T21:42:22.363Z,99869.92
2019-02-25T21:44:54.686Z,99874.81
2019-02-25T21:47:30.721Z,99879.41
2019-02-25T21:50:04.040Z,99871.54
2019-02-25T21:52:36.858Z,99869.30
2019-02-25T21:55:11.777Z,99870.14
2019-02-25T21:57:44.076Z,99871.02
2019-02-25T22:00:18.064Z,99879.48
2019-02-25T22:02:52.257Z,99879.83
2019-02-25T22:05:24.197Z,99882.44
2019-02-25T22:07:57.747Z,99885.90
2019-02-25T22:10:29.966Z,99885.34
2019-02-25T22:13:04.602Z,99888.73
2019-02-25T22:15:36.238Z,99883.62
2019-02-25T22:18:11.415Z,99896.26
2019-02-25T22:20:45.237Z,99898.42
2019-02-25T22:23:16.549Z,99885.48
2019-02-25T22:25:48.650Z,99898.28
2019-02-25T22:28:20.408Z,99899.42
2019-02-25T22:30:53.973Z,99903.59
2019-02-25T22:33:27.847Z,99902.86
2019-02-25T22:35:59.119Z,99895.28
2019-02-25T22:38:30.881Z,99903.11
2019-02-25T22:41:04.023Z,99904.20
2019-02-25T22:43:36.825Z,99898.48
2019-02-25T22:46:11.521Z,99895.33
2019-02-25T22:48:44.971Z,99893.41
2019-02-25T22:51:19.523Z,99889.38
2019-02-25T22:53:50.683Z,99893.13
2019-02-25T22:56:23.386Z,99908.97
2019-02-25T22:58:56.621Z,99910.44
2019-02-25T23:01:29.370Z,99909.56
2019-02-25T23:04:01.027Z,99910.39
2019-02-25T23:06:32.758Z,99897.91
2019-02-25T23:09:04.848Z,99901.74
2019-02-25T23:11:39.865Z,99897.11
2019-02-25T23:14:13.681Z,99896.26
2019-02-25T23:16:48.043Z,99901.67
2019-02-25T23:19:22.611Z,99908.27
2019-02-25T23:21:58.023Z,99905.44
2019-02-25T23:24:34.618Z,99906.78
2019-02-25T23:27:07.830Z,99901.41
2019-02-25T23:29:41.260Z,99900.94
2019-02-25T23:32:17.443Z,99903.36
2019-02-25T23:34:52.747Z,99901.54
2019-02-25T23:37:28.170Z,99907.11
2019-02-25T23:40:07.353Z,99901.04
2019-02-25T23:42:44.349Z,99896.00
2019-02-25T23:45:20.259Z,99905.20
2019-02-25T23:47:57.683Z,99897.69
2019-02-25T23:50:31.873Z,99912.27
2019-02-25T23:56:00.610Z,99908.41
2019-02-25T23:58:38.339Z,99909.02
